Time;durP1;ratioP1;P1;durP2;ratioP2;P2;SDS_P1;SDS_P2;PMS_P1;PMS_P2;Temp;Humidity;BMP_temperature;BMP_pressure;BME280_temperature;BME280_humidity;BME280_pressure;Samples;Min_cycle;Max_cycle;Signal;HPM_P1;HPM_P2
2022/10/20 00:01:46;;;;;;;17.10;14.50;;;;;;;22.39;59.64;101576.78;5136660;27;20050;-83
2022/10/20 00:04:18;;;;;;;19.87;14.17;;;;;;;22.40;59.61;101574.94;5137533;28;20047;-84
2022/10/20 00:06:45;;;;;;;16.20;14.45;;;;;;;22.41;59.61;101582.06;5118091;28;20039;-83
2022/10/20 00:09:13;;;;;;;17.40;14.30;;;;;;;22.39;59.63;101570.53;5118140;28;20062;-83
2022/10/20 00:11:41;;;;;;;16.08;14.43;;;;;;;22.38;59.85;101572.38;5100122;28;20051;-83
2022/10/20 00:14:08;;;;;;;16.27;14.38;;;;;;;22.38;59.59;101583.16;5136850;28;20046;-84
2022/10/20 00:16:38;;;;;;;15.63;13.48;;;;;;;22.39;59.64;101586.72;5118798;28;20043;-84
2022/10/20 00:19:05;;;;;;;15.23;13.73;;;;;;;22.39;59.69;101584.03;5136732;28;20474;-84
2022/10/20 00:21:32;;;;;;;17.73;15.10;;;;;;;22.37;59.72;101578.78;5136404;28;20482;-84
2022/10/20 00:24:01;;;;;;;15.07;13.50;;;;;;;22.39;59.59;101597.50;5136808;28;20050;-84
2022/10/20 00:26:30;;;;;;;15.45;13.98;;;;;;;22.39;59.61;101597.50;5136285;28;20046;-83
2022/10/20 00:28:57;;;;;;;15.20;13.70;;;;;;;22.37;59.52;101597.66;5136764;28;20050;-83
2022/10/20 00:31:25;;;;;;;17.48;13.32;;;;;;;22.39;59.57;101594.81;5136109;28;20043;-83
2022/10/20 00:33:52;;;;;;;15.70;13.30;;;;;;;22.38;59.45;101598.50;5117381;28;20042;-82
2022/10/20 00:36:21;;;;;;;15.95;14.30;;;;;;;22.36;59.62;101590.56;5116521;28;20494;-82
2022/10/20 00:38:50;;;;;;;14.38;12.88;;;;;;;22.37;59.50;101602.19;5136865;28;20044;-82
2022/10/20 00:41:20;;;;;;;16.55;14.15;;;;;;;22.37;59.40;101600.34;5118351;28;20051;-82
2022/10/20 00:43:56;;;;;;;16.38;14.63;;;;;;;22.37;59.36;101602.19;5135947;28;20410;-83
2022/10/20 00:46:44;;;;;;;15.10;13.50;;;;;;;22.36;59.38;101600.47;5136566;28;20047;-84
2022/10/20 00:49:24;;;;;;;15.57;14.00;;;;;;;22.36;59.38;101605.84;5136821;27;20055;-83
2022/10/20 00:51:53;;;;;;;15.73;13.20;;;;;;;22.36;59.49;101601.34;5137310;28;20050;-81
2022/10/20 00:54:26;;;;;;;15.05;13.45;;;;;;;22.37;59.35;101607.59;5136064;28;20376;-82
2022/10/20 00:56:55;;;;;;;14.95;13.00;;;;;;;22.37;59.30;101607.59;5116930;28;20058;-82
2022/10/20 00:59:29;;;;;;;15.05;13.55;;;;;;;22.35;59.40;101615.81;5117457;28;20051;-84
2022/10/20 01:01:58;;;;;;;14.93;13.48;;;;;;;22.35;59.43;101598.75;5117583;27;20047;-83
2022/10/20 01:04:29;;;;;;;14.88;13.40;;;;;;;22.36;59.16;101597.75;5140341;27;20054;-84
2022/10/20 01:06:57;;;;;;;15.05;13.52;;;;;;;22.36;59.38;101601.34;5120806;27;20062;-83
2022/10/20 01:09:25;;;;;;;14.60;13.10;;;;;;;22.36;59.28;101600.47;5140144;27;20047;-82
2022/10/20 01:12:19;;;;;;;15.63;14.00;;;;;;;22.36;59.24;101605.84;5139856;27;20047;-83
2022/10/20 01:15:15;;;;;;;16.02;14.32;;;;;;;22.34;59.34;101606.00;5056176;28;20456;-83
2022/10/20 01:18:12;;;;;;;14.75;13.25;;;;;;;22.35;59.15;101604.16;5057534;28;20048;-83
2022/10/20 01:21:27;;;;;;;15.25;13.68;;;;;;;22.34;59.18;101592.50;5039812;28;20049;-83
2022/10/20 01:24:29;;;;;;;16.23;14.05;;;;;;;22.35;59.20;101593.38;4941823;29;20152;-83
2022/10/20 01:27:19;;;;;;;14.07;12.68;;;;;;;22.34;59.13;101592.50;4958005;29;20070;-84
2022/10/20 01:29:52;;;;;;;15.23;13.63;;;;;;;22.35;59.27;101594.22;4957982;29;20066;-85
2022/10/20 01:32:36;;;;;;;15.05;13.55;;;;;;;22.34;59.07;101602.47;4958354;29;20399;-85
2022/10/20 01:35:16;;;;;;;16.40;14.00;;;;;;;22.33;58.98;101590.81;4926971;29;20059;-85
2022/10/20 01:38:15;;;;;;;14.98;13.48;;;;;;;22.35;58.90;101593.38;4957863;29;20463;-84
2022/10/20 01:40:45;;;;;;;15.23;13.73;;;;;;;22.33;59.13;101590.81;4957981;29;20132;-84
2022/10/20 01:43:17;;;;;;;14.80;13.32;;;;;;;22.34;59.00;101588.97;4957489;29;20066;-85
2022/10/20 01:45:47;;;;;;;16.80;13.20;;;;;;;22.33;58.97;101581.88;4942821;29;20070;-83
2022/10/20 01:48:18;;;;;;;15.52;13.00;;;;;;;22.32;58.92;101572.03;4942498;29;20300;-83
2022/10/20 01:50:47;;;;;;;15.52;13.65;;;;;;;22.32;58.89;101570.22;4966746;28;20113;-84
2022/10/20 01:53:14;;;;;;;16.58;13.95;;;;;;;22.32;58.95;101566.66;5035991;28;20062;-84
2022/10/20 01:55:42;;;;;;;15.68;14.05;;;;;;;22.34;58.96;101570.09;5036507;28;20061;-84
2022/10/20 01:58:27;;;;;;;15.05;13.00;;;;;;;22.31;58.93;101560.41;5036341;28;20049;-85
2022/10/20 02:01:02;;;;;;;15.85;13.70;;;;;;;22.32;58.99;101572.03;5089477;27;20058;-85
2022/10/20 02:04:01;;;;;;;15.90;13.65;;;;;;;22.30;58.80;101574.03;5139054;27;20054;-84
2022/10/20 02:06:47;;;;;;;13.80;12.40;;;;;;;22.32;58.91;101572.03;5138139;27;20058;-84
2022/10/20 02:09:42;;;;;;;14.95;13.43;;;;;;;22.31;58.93;101583.81;5139699;27;20039;-84
2022/10/20 02:12:32;;;;;;;15.85;14.13;;;;;;;22.32;58.79;101574.75;5139231;27;20058;-85
2022/10/20 02:15:02;;;;;;;14.32;12.85;;;;;;;22.30;58.74;101574.88;5138437;27;20055;-82
2022/10/20 02:17:33;;;;;;;14.43;12.93;;;;;;;22.29;58.85;101572.34;5138418;27;20047;-83
2022/10/20 02:20:03;;;;;;;13.90;12.50;;;;;;;22.31;58.72;101570.34;5139391;27;20054;-83
2022/10/20 02:22:32;;;;;;;15.45;13.48;;;;;;;22.31;58.71;101573.03;5138736;27;20051;-83
2022/10/20 02:25:00;;;;;;;13.75;12.32;;;;;;;22.31;58.72;101583.81;5120499;27;20506;-83
2022/10/20 02:27:34;;;;;;;15.57;13.98;;;;;;;22.30;58.71;101582.97;5138372;27;20047;-82
2022/10/20 02:30:09;;;;;;;15.05;13.45;;;;;;;22.30;58.86;101577.59;5119861;27;20410;-84
2022/10/20 02:32:40;;;;;;;14.30;12.90;;;;;;;22.30;58.96;101582.97;5120511;27;20058;-87
2022/10/20 02:35:16;;;;;;;14.88;13.38;;;;;;;22.31;58.79;101587.38;5138553;27;20043;-85
2022/10/20 02:37:43;;;;;;;14.85;13.27;;;;;;;22.29;58.78;101581.28;5138571;27;20470;-85
2022/10/20 02:40:11;;;;;;;16.80;13.32;;;;;;;22.30;58.72;101584.81;5137717;27;20047;-85
2022/10/20 02:42:39;;;;;;;16.10;14.05;;;;;;;22.28;58.71;101576.00;5102009;27;20043;-84
2022/10/20 02:45:07;;;;;;;14.80;13.40;;;;;;;22.30;58.73;101579.44;5102302;27;20047;-85
2022/10/20 02:47:34;;;;;;;14.63;13.07;;;;;;;22.29;58.84;101583.13;5138173;27;20046;-86
2022/10/20 02:50:02;;;;;;;13.25;11.90;;;;;;;22.29;58.62;101588.53;5119376;27;20445;-86
2022/10/20 02:52:30;;;;;;;14.70;12.55;;;;;;;22.29;58.67;101583.13;5138241;27;20051;-85
2022/10/20 02:54:57;;;;;;;15.13;13.07;;;;;;;22.28;58.79;101592.19;5118840;27;20058;-86
2022/10/20 02:57:25;;;;;;;15.80;14.18;;;;;;;22.29;58.72;101593.91;5119050;27;20050;-86
2022/10/20 02:59:53;;;;;;;14.07;12.73;;;;;;;22.27;58.70;101599.41;5119038;27;20058;-86
2022/10/20 03:02:20;;;;;;;14.05;12.55;;;;;;;22.28;58.82;101598.47;5119321;27;20051;-87
2022/10/20 03:04:47;;;;;;;14.60;12.32;;;;;;;22.28;58.73;101598.47;5138005;27;20043;-86
2022/10/20 03:07:15;;;;;;;15.63;13.43;;;;;;;22.29;58.61;101604.69;5137276;27;20062;-85
2022/10/20 03:09:43;;;;;;;15.40;13.85;;;;;;;22.28;58.78;101597.56;5137607;27;20050;-85
2022/10/20 03:12:10;;;;;;;14.57;13.07;;;;;;;22.28;58.53;101598.47;5138076;27;20046;-85
2022/10/20 03:14:37;;;;;;;15.35;13.75;;;;;;;22.27;58.63;101598.56;5120171;27;20043;-85
2022/10/20 03:17:04;;;;;;;15.40;14.00;;;;;;;22.28;58.65;101597.56;5118211;27;20047;-85
2022/10/20 03:19:32;;;;;;;15.23;13.63;;;;;;;22.28;58.50;101597.56;5135732;27;20054;-84
2022/10/20 03:21:59;;;;;;;14.32;12.90;;;;;;;22.27;58.76;101607.50;5137521;27;20047;-84
2022/10/20 03:24:27;;;;;;;18.23;13.43;;;;;;;22.27;58.44;101602.13;5118625;27;20058;-84
2022/10/20 03:26:54;;;;;;;14.20;12.88;;;;;;;22.27;58.61;101609.34;5117873;27;20062;-85
2022/10/20 03:29:21;;;;;;;14.27;12.77;;;;;;;22.26;58.64;101611.22;5119160;27;20043;-84
2022/10/20 03:31:49;;;;;;;13.98;12.65;;;;;;;22.28;58.65;101619.16;5137240;27;20054;-84
2022/10/20 03:34:21;;;;;;;14.63;13.13;;;;;;;22.27;58.67;101618.31;5136863;27;20066;-84
2022/10/20 03:36:49;;;;;;;14.75;13.30;;;;;;;22.28;58.47;101619.16;5137159;27;20042;-84
2022/10/20 03:39:16;;;;;;;13.63;12.23;;;;;;;22.26;58.51;101622.00;5136910;27;20043;-84
2022/10/20 03:41:43;;;;;;;14.80;12.50;;;;;;;22.28;58.50;101627.25;5118838;27;20062;-84
2022/10/20 03:44:11;;;;;;;15.27;13.02;;;;;;;22.26;58.54;101622.00;5119033;27;20047;-84
2022/10/20 03:46:40;;;;;;;16.05;14.35;;;;;;;22.26;58.54;101621.16;5118771;27;20494;-83
2022/10/20 03:49:07;;;;;;;15.25;13.38;;;;;;;22.25;58.60;101608.66;5136517;27;20046;-84
2022/10/20 03:51:34;;;;;;;13.93;12.52;;;;;;;22.27;58.48;101618.31;5138115;27;20561;-83
2022/10/20 03:54:02;;;;;;;15.45;13.48;;;;;;;22.25;58.53;101619.44;5119677;27;20498;-83
2022/10/20 03:56:29;;;;;;;13.95;12.52;;;;;;;22.25;58.61;101616.75;5138550;27;20048;-84
2022/10/20 03:58:56;;;;;;;15.25;13.38;;;;;;;22.26;58.50;101615.75;5138477;27;20482;-84
2022/10/20 04:01:29;;;;;;;14.90;13.35;;;;;;;22.26;58.68;101616.59;5138003;27;20058;-82
2022/10/20 04:03:57;;;;;;;14.48;13.00;;;;;;;22.24;58.39;101613.19;5117547;28;20047;-83
2022/10/20 04:06:25;;;;;;;15.20;13.70;;;;;;;22.26;58.60;101621.16;5136928;28;20055;-83
2022/10/20 04:08:52;;;;;;;14.07;12.10;;;;;;;22.24;58.56;101618.59;5117875;28;20051;-83
2022/10/20 04:11:19;;;;;;;14.88;12.77;;;;;;;22.25;58.53;101622.13;5118409;28;20055;-84
2022/10/20 04:13:47;;;;;;;15.80;12.43;;;;;;;22.25;58.49;101617.59;5137638;28;20514;-84
2022/10/20 04:16:14;;;;;;;14.55;12.82;;;;;;;22.23;58.58;101621.41;5137086;28;20047;-84
2022/10/20 04:18:41;;;;;;;14.93;12.95;;;;;;;22.24;58.49;101617.72;5118442;28;20035;-84
2022/10/20 04:21:09;;;;;;;14.05;12.43;;;;;;;22.25;58.41;101619.44;5118032;28;20058;-85
2022/10/20 04:23:38;;;;;;;14.60;13.10;;;;;;;22.23;58.39;101619.56;5119217;28;20039;-85
2022/10/20 04:26:10;;;;;;;14.23;12.75;;;;;;;22.24;58.49;101618.59;5137495;28;20047;-84
2022/10/20 04:28:38;;;;;;;14.68;12.25;;;;;;;22.24;58.46;101609.63;5136783;28;20058;-84
2022/10/20 04:31:06;;;;;;;15.50;13.88;;;;;;;22.24;58.47;101615.00;5136481;28;20051;-83
2022/10/20 04:33:34;;;;;;;13.75;12.32;;;;;;;22.23;58.37;101611.47;5136804;28;20047;-84
2022/10/20 04:36:05;;;;;;;14.93;12.88;;;;;;;22.23;58.42;101613.31;5136738;28;20047;-84
2022/10/20 04:38:33;;;;;;;13.88;12.60;;;;;;;22.21;58.39;101611.59;5138799;27;20051;-84
2022/10/20 04:41:03;;;;;;;14.30;12.40;;;;;;;22.21;58.36;101614.31;5121391;27;20051;-83
2022/10/20 04:43:32;;;;;;;14.13;12.73;;;;;;;22.21;58.45;101619.69;5140546;27;20509;-83
2022/10/20 04:46:04;;;;;;;13.35;11.95;;;;;;;22.23;58.42;101616.00;5121967;27;20047;-85
2022/10/20 04:48:36;;;;;;;13.93;12.35;;;;;;;22.20;58.29;101612.59;5140512;27;20371;-87
2022/10/20 04:51:07;;;;;;;13.85;12.43;;;;;;;22.21;58.31;101616.16;5141324;27;20054;-86
2022/10/20 04:53:34;;;;;;;13.38;11.77;;;;;;;22.20;58.36;101612.59;5121603;27;20062;-84
2022/10/20 04:56:04;;;;;;;14.65;13.13;;;;;;;22.22;58.28;101615.16;5140793;27;20043;-85
2022/10/20 04:58:32;;;;;;;14.80;13.15;;;;;;;22.21;58.10;101613.44;5140323;27;20043;-87
2022/10/20 05:01:09;;;;;;;14.48;12.82;;;;;;;22.20;58.21;101623.38;5122512;27;20043;-86
2022/10/20 05:03:36;;;;;;;14.55;12.68;;;;;;;22.20;58.30;101628.78;5140985;27;20054;-84
2022/10/20 05:06:07;;;;;;;16.15;13.15;;;;;;;22.20;58.07;101627.91;5100527;28;20059;-86
2022/10/20 05:08:38;;;;;;;18.08;13.27;;;;;;;22.20;58.12;101625.19;5119942;28;20052;-85
2022/10/20 05:11:07;;;;;;;13.65;11.95;;;;;;;22.20;58.15;101628.78;5118704;28;20054;-83
2022/10/20 05:13:34;;;;;;;14.55;12.05;;;;;;;22.20;58.17;101625.19;5117788;28;20051;-83
2022/10/20 05:16:02;;;;;;;13.82;12.40;;;;;;;22.20;58.13;101622.50;5100599;28;20048;-82
2022/10/20 05:18:30;;;;;;;14.70;12.48;;;;;;;22.21;58.00;101625.09;5118104;28;20114;-81
2022/10/20 05:20:57;;;;;;;15.30;13.48;;;;;;;22.19;58.05;101624.34;5119776;28;20055;-81
2022/10/20 05:23:36;;;;;;;16.70;12.80;;;;;;;22.19;57.92;101627.06;5117217;28;20059;-81
2022/10/20 05:26:07;;;;;;;14.50;13.02;;;;;;;22.19;58.01;101637.84;5119677;28;20050;-82
2022/10/20 05:28:35;;;;;;;13.93;12.57;;;;;;;22.17;58.00;101631.72;5117515;28;20055;-84
2022/10/20 05:31:05;;;;;;;13.45;12.20;;;;;;;22.19;57.87;101632.44;5119119;28;20042;-82
2022/10/20 05:33:33;;;;;;;13.00;11.70;;;;;;;22.18;57.98;101630.75;5119256;28;20055;-83
2022/10/20 05:36:09;;;;;;;18.90;12.82;;;;;;;22.18;57.87;101635.28;5119603;28;20043;-83
2022/10/20 05:38:40;;;;;;;13.98;11.65;;;;;;;22.19;57.95;101637.00;5117549;28;20047;-83
2022/10/20 05:41:09;;;;;;;13.75;12.35;;;;;;;22.19;58.00;101637.84;5118937;28;20047;-83
2022/10/20 05:43:37;;;;;;;12.30;11.10;;;;;;;22.18;58.20;101643.38;5116619;28;20051;-83
2022/10/20 05:46:06;;;;;;;13.52;12.02;;;;;;;22.18;58.21;101652.31;5117292;28;20399;-83
2022/10/20 05:48:34;;;;;;;14.82;12.20;;;;;;;22.19;58.19;101645.06;5118177;28;20044;-84
2022/10/20 05:51:12;;;;;;;13.45;12.15;;;;;;;22.19;58.15;101642.38;5119535;28;20044;-84
2022/10/20 05:53:42;;;;;;;17.27;12.93;;;;;;;22.19;57.97;101648.63;5118634;28;20055;-80
2022/10/20 05:56:14;;;;;;;24.20;18.60;;;;;;;22.14;55.20;101645.47;5118400;28;20047;-92
2022/10/20 05:58:42;;;;;;;23.33;20.63;;;;;;;22.05;54.62;101657.00;5118689;28;20052;-84
2022/10/20 06:01:16;;;;;;;25.15;20.13;;;;;;;21.99;54.68;101657.53;5118475;28;20039;-92
2022/10/20 06:03:48;;;;;;;26.85;22.13;;;;;;;21.92;54.33;101661.75;5118118;28;20052;-85
2022/10/20 06:06:15;;;;;;;25.70;21.95;;;;;;;21.89;54.42;101665.53;5129827;27;20402;-92
2022/10/20 06:08:43;;;;;;;29.33;21.25;;;;;;;21.85;54.84;101660.53;5139516;27;20054;-86
2022/10/20 06:11:12;;;;;;;27.30;22.08;;;;;;;21.80;54.68;101668.16;5137029;27;20490;-84
2022/10/20 06:13:40;;;;;;;26.50;22.90;;;;;;;21.77;54.68;101660.31;5139116;27;20047;-85
2022/10/20 06:16:16;;;;;;;25.52;22.35;;;;;;;21.75;54.74;101668.50;5137200;27;20414;-82
2022/10/20 06:18:43;;;;;;;31.10;22.13;;;;;;;21.75;54.85;101675.75;5137496;27;20074;-85
2022/10/20 06:21:13;;;;;;;26.45;22.08;;;;;;;21.74;54.98;101674.91;5140099;27;20047;-83
2022/10/20 06:23:41;;;;;;;29.67;21.58;;;;;;;21.74;55.03;101677.59;5137579;27;20047;-83
2022/10/20 06:26:11;;;;;;;32.25;22.70;;;;;;;21.72;54.95;101682.28;5137989;27;20054;-80
2022/10/20 06:28:40;;;;;;;27.38;22.55;;;;;;;21.70;54.87;101687.75;5136662;27;20058;-78
2022/10/20 06:31:11;;;;;;;26.88;21.70;;;;;;;21.70;54.70;101686.91;5136539;27;20387;-81
2022/10/20 06:33:39;;;;;;;27.80;21.52;;;;;;;21.68;54.75;101687.06;5138025;27;20051;-84
2022/10/20 06:36:07;;;;;;;28.38;21.80;;;;;;;21.65;54.82;101691.84;5137085;27;20050;-89
2022/10/20 06:38:35;;;;;;;27.90;21.83;;;;;;;21.63;54.65;101691.97;5137996;27;20042;-87
2022/10/20 06:41:09;;;;;;;27.65;21.85;;;;;;;21.61;54.87;101699.31;5138632;27;20039;-83
2022/10/20 06:43:37;;;;;;;29.60;22.25;;;;;;;21.61;54.93;101699.31;5138707;27;20062;-81
2022/10/20 06:46:06;;;;;;;27.10;22.30;;;;;;;21.59;54.91;101703.09;5137962;27;20058;-82
2022/10/20 06:48:34;;;;;;;27.27;22.58;;;;;;;21.60;54.82;101699.44;5138509;27;20047;-82
2022/10/20 06:51:09;;;;;;;24.83;19.92;;;;;;;21.58;55.10;101704.94;5136575;27;20039;-90
2022/10/20 06:53:36;;;;;;;24.25;20.52;;;;;;;21.59;55.03;101701.28;5137608;27;20057;-86
2022/10/20 06:56:16;;;;;;;24.98;20.65;;;;;;;21.58;54.80;101704.94;5136897;27;20050;-80
2022/10/20 06:58:46;;;;;;;29.80;21.83;;;;;;;21.60;54.98;101708.38;5137411;27;20401;-84
2022/10/20 07:01:27;;;;;;;32.47;23.38;;;;;;;21.59;55.12;101713.88;5137434;27;20047;-84
2022/10/20 07:03:59;;;;;;;28.70;21.05;;;;;;;21.59;55.31;101716.56;5138003;27;20057;-90
2022/10/20 07:06:38;;;;;;;32.88;21.27;;;;;;;21.61;55.40;101714.63;5119239;27;20055;-82
2022/10/20 07:09:07;;;;;;;31.63;21.17;;;;;;;21.60;55.47;101708.38;5138312;27;20054;-87
2022/10/20 07:11:35;;;;;;;29.42;22.05;;;;;;;21.60;55.18;101716.47;5102061;27;20047;-81
2022/10/20 07:14:03;;;;;;;27.23;21.42;;;;;;;21.62;55.59;101719.88;5136518;27;20047;-87
2022/10/20 07:16:33;;;;;;;24.77;19.10;;;;;;;21.65;55.41;101721.47;5118451;27;20047;-85
2022/10/20 07:19:02;;;;;;;30.90;21.80;;;;;;;21.66;55.18;101720.47;5136998;27;20046;-90
2022/10/20 07:21:30;;;;;;;30.23;23.42;;;;;;;21.68;55.17;101732.88;5119466;27;20470;-88
2022/10/20 07:24:05;;;;;;;30.85;22.50;;;;;;;21.68;55.35;101719.41;5119420;27;20055;-86
2022/10/20 07:26:35;;;;;;;26.70;21.15;;;;;;;21.71;55.29;101723.66;5136817;27;20047;-90
2022/10/20 07:29:04;;;;;;;26.48;20.85;;;;;;;21.72;55.39;101715.47;5136502;27;20051;-83
2022/10/20 07:31:35;;;;;;;28.13;22.00;;;;;;;21.71;55.19;101711.06;5136292;27;20040;-90
2022/10/20 07:34:03;;;;;;;30.35;23.13;;;;;;;21.72;55.24;101715.47;5132771;27;20482;-88
2022/10/20 07:36:51;;;;;;;30.58;22.45;;;;;;;21.73;55.22;101713.63;5135973;27;20050;-90
2022/10/20 07:39:18;;;;;;;28.40;21.00;;;;;;;21.75;55.27;101716.19;5117033;27;20050;-88
2022/10/20 07:41:46;;;;;;;28.38;20.73;;;;;;;21.76;55.20;101721.47;5117970;27;20074;-92
2022/10/20 07:44:15;;;;;;;29.13;22.33;;;;;;;21.78;55.06;101721.31;5100432;27;20066;-88
2022/10/20 07:46:43;;;;;;;27.65;22.45;;;;;;;21.78;55.38;101726.72;5117866;27;20039;-89
2022/10/20 07:49:10;;;;;;;29.98;22.27;;;;;;;21.78;55.34;101724.88;5116809;27;20054;-80
2022/10/20 07:51:58;;;;;;;28.27;21.98;;;;;;;21.79;55.26;101723.03;5135998;27;20039;-89
2022/10/20 07:54:25;;;;;;;26.83;22.05;;;;;;;21.81;55.39;101723.78;5136640;27;20047;-89
2022/10/20 07:56:52;;;;;;;28.05;22.67;;;;;;;21.83;55.35;101724.47;5136848;27;20047;-80
2022/10/20 07:59:20;;;;;;;28.40;21.30;;;;;;;21.83;55.61;101721.78;5135802;27;20043;-84
2022/10/20 08:01:47;;;;;;;33.15;24.08;;;;;;;21.83;55.60;101717.25;5116861;28;20398;-83
2022/10/20 08:04:15;;;;;;;35.03;24.13;;;;;;;21.83;55.72;101721.78;5117778;28;20039;-89
2022/10/20 08:06:42;;;;;;;29.77;24.45;;;;;;;21.81;55.62;101723.78;5117662;28;20059;-82
2022/10/20 08:09:09;;;;;;;34.90;26.77;;;;;;;21.82;55.82;101722.78;5135397;28;20513;-87
2022/10/20 08:11:41;;;;;;;31.63;23.95;;;;;;;21.81;55.91;101730.00;5118178;27;20043;-89
2022/10/20 08:14:08;;;;;;;28.20;22.13;;;;;;;21.82;55.99;101730.88;5139297;27;20047;-93
2022/10/20 08:16:36;;;;;;;30.92;22.60;;;;;;;21.84;56.15;101731.63;5121838;27;20407;-89
2022/10/20 08:19:13;;;;;;;27.15;22.40;;;;;;;21.84;56.04;101728.91;5123717;27;20047;-88
2022/10/20 08:21:51;;;;;;;32.28;24.27;;;;;;;21.86;56.10;101732.31;5123562;27;20043;-90
2022/10/20 08:24:19;;;;;;;33.42;24.92;;;;;;;21.88;56.14;101727.69;5122145;27;20478;-86
2022/10/20 08:26:46;;;;;;;32.17;23.88;;;;;;;21.88;56.16;101735.78;5121389;27;20089;-91
2022/10/20 08:29:13;;;;;;;33.03;24.05;;;;;;;21.89;56.29;101738.31;5104991;27;20043;-83
2022/10/20 08:31:43;;;;;;;32.88;25.27;;;;;;;21.91;56.16;101730.09;5139985;27;20039;-82
2022/10/20 08:34:10;;;;;;;29.60;23.88;;;;;;;21.91;56.25;101730.94;5140409;27;20051;-89
2022/10/20 08:36:38;;;;;;;36.70;26.40;;;;;;;21.93;56.58;101729.00;5121866;27;20047;-90
2022/10/20 08:39:05;;;;;;;32.65;25.92;;;;;;;21.93;56.42;101726.31;5120867;27;20051;-83
2022/10/20 08:41:39;;;;;;;35.22;26.63;;;;;;;21.95;56.63;101743.19;5104753;27;20410;-83
2022/10/20 08:44:33;;;;;;;37.78;26.60;;;;;;;21.96;56.59;101731.44;5139703;27;20421;-90
2022/10/20 08:47:03;;;;;;;34.25;27.35;;;;;;;21.97;56.65;101724.22;5139388;27;20054;-92
2022/10/20 08:49:33;;;;;;;32.67;26.27;;;;;;;21.98;56.55;101729.47;5120312;27;20051;-86
2022/10/20 08:52:01;;;;;;;35.28;26.80;;;;;;;21.98;56.72;101725.91;5120949;27;20051;-88
2022/10/20 08:54:32;;;;;;;32.85;25.98;;;;;;;22.02;56.86;101732.78;5139589;27;20054;-88
2022/10/20 08:57:00;;;;;;;34.75;26.73;;;;;;;21.99;57.01;101727.63;5139934;27;20043;-91
2022/10/20 08:59:36;;;;;;;39.30;28.40;;;;;;;22.01;56.95;101738.31;5104314;27;20054;-88
2022/10/20 09:02:16;;;;;;;37.95;29.55;;;;;;;22.03;57.08;101728.22;5104746;27;20043;-85
2022/10/20 09:04:52;;;;;;;40.35;27.40;;;;;;;22.06;57.06;101739.63;5144810;27;20047;-86
2022/10/20 09:07:25;;;;;;;35.67;26.35;;;;;;;22.04;57.17;101736.22;5143986;27;20051;-85
2022/10/20 09:09:56;;;;;;;;;;;;;;;22.06;57.25;101744.16;5145295;27;20066;-84
2022/10/20 09:12:24;;;;;;;31.13;26.25;;;;;;;22.06;57.30;101739.63;5128280;27;19927;-85
2022/10/20 09:14:57;;;;;;;31.25;24.58;;;;;;;22.07;57.28;101743.16;5140408;27;20047;-83
2022/10/20 09:17:24;;;;;;;36.08;26.45;;;;;;;22.07;57.11;101744.00;5139708;27;20054;-84
2022/10/20 09:19:57;;;;;;;35.78;28.63;;;;;;;22.09;57.34;101752.00;5121239;27;20043;-87
2022/10/20 09:22:27;;;;;;;38.03;27.88;;;;;;;22.09;57.32;101743.91;5121299;27;20039;-90
2022/10/20 09:25:03;;;;;;;44.85;33.00;;;;;;;22.09;57.53;101754.69;5138528;27;20493;-90
2022/10/20 09:27:38;;;;;;;44.67;33.25;;;;;;;22.09;57.57;101747.47;5121256;27;20047;-84
2022/10/20 09:30:24;;;;;;;44.35;33.28;;;;;;;22.11;57.55;101750.88;5138692;27;20043;-83
2022/10/20 09:32:52;;;;;;;50.08;37.03;;;;;;;22.09;57.56;101749.31;5138558;27;20047;-88
2022/10/20 09:35:27;;;;;;;46.67;36.22;;;;;;;22.11;57.55;101750.00;5138657;27;20051;-80
2022/10/20 09:38:03;;;;;;;48.60;36.42;;;;;;;22.10;57.70;101735.69;5120452;27;20050;-86
2022/10/20 09:40:30;;;;;;;48.13;33.20;;;;;;;22.11;57.56;101740.09;5139659;27;20043;-81
2022/10/20 09:43:07;;;;;;;44.25;32.90;;;;;;;22.11;57.62;101736.53;5137789;27;20046;-79
2022/10/20 09:45:38;;;;;;;39.80;30.60;;;;;;;22.12;57.56;101738.22;5137633;27;20039;-87
2022/10/20 09:48:21;;;;;;;39.80;29.25;;;;;;;22.12;57.51;101732.84;5118304;27;20051;-81
2022/10/20 09:50:53;;;;;;;40.10;28.85;;;;;;;22.13;57.59;101745.41;5119050;27;20058;-84
2022/10/20 09:53:27;;;;;;;38.80;29.52;;;;;;;22.13;57.59;101748.09;5138313;27;20047;-85
2022/10/20 09:55:55;;;;;;;33.35;25.30;;;;;;;22.13;57.66;101746.25;5138107;27;20051;-81
2022/10/20 09:58:31;;;;;;;41.05;29.35;;;;;;;22.14;57.81;101745.25;5138762;27;20073;-87
2022/10/20 10:01:12;;;;;;;37.97;29.05;;;;;;;22.14;57.71;101747.97;5120197;27;20051;-88
2022/10/20 10:04:00;;;;;;;38.55;29.08;;;;;;;22.15;57.64;101738.88;5139218;27;20051;-79
2022/10/20 10:06:37;;;;;;;40.88;28.77;;;;;;;22.15;57.56;101740.72;5137364;27;20055;-80
2022/10/20 10:09:25;;;;;;;37.35;29.48;;;;;;;22.15;57.74;101730.78;5137937;27;20390;-79
2022/10/20 10:12:13;;;;;;;47.85;33.33;;;;;;;22.15;57.89;101728.09;5119606;27;20058;-79
2022/10/20 10:14:55;;;;;;;44.85;34.88;;;;;;;22.15;57.84;101733.47;5138970;27;20409;-86
2022/10/20 10:17:33;;;;;;;46.05;33.38;;;;;;;22.15;57.97;101725.38;5119962;27;20043;-84
2022/10/20 10:20:06;;;;;;;38.58;29.65;;;;;;;22.16;58.01;101719.03;5139151;27;20050;-84
2022/10/20 10:22:34;;;;;;;47.17;34.08;;;;;;;22.17;57.92;101719.88;5120005;27;20043;-87
2022/10/20 10:25:04;;;;;;;43.03;31.45;;;;;;;22.16;58.06;101727.13;5136847;27;20058;-79
2022/10/20 10:27:35;;;;;;;42.97;30.05;;;;;;;22.16;57.92;101716.34;5136547;27;20044;-83
2022/10/20 10:30:31;;;;;;;38.55;29.15;;;;;;;22.18;58.11;101722.44;5120860;27;20501;-91
2022/10/20 10:32:58;;;;;;;42.92;28.15;;;;;;;22.18;57.93;101708.09;5137672;27;20050;-83
2022/10/20 10:35:41;;;;;;;34.72;26.30;;;;;;;22.18;58.03;101714.34;5136901;27;20055;-80
2022/10/20 10:38:11;;;;;;;34.60;25.88;;;;;;;22.19;57.84;101710.66;5138520;27;20043;-84
2022/10/20 10:40:47;;;;;;;34.55;25.92;;;;;;;22.19;58.02;101713.34;5137758;27;20039;-89
2022/10/20 10:43:42;;;;;;;34.55;24.55;;;;;;;22.20;57.89;101717.78;5137055;27;20444;-86
2022/10/20 10:46:26;;;;;;;35.20;25.38;;;;;;;22.20;58.09;101715.09;5136935;27;20497;-81
2022/10/20 10:49:18;;;;;;;32.75;26.30;;;;;;;22.21;58.02;101708.72;5136110;27;20058;-80
2022/10/20 10:51:55;;;;;;;36.50;27.05;;;;;;;22.22;58.13;101712.25;5132465;27;20482;-82
2022/10/20 10:54:50;;;;;;;35.97;26.05;;;;;;;22.23;58.20;101710.41;5133956;27;20055;-85
2022/10/20 10:57:29;;;;;;;34.78;26.63;;;;;;;22.23;58.07;101710.41;5115644;28;20070;-82
2022/10/20 11:00:00;;;;;;;45.15;31.83;;;;;;;22.23;58.17;101705.88;5116646;28;20044;-89
2022/10/20 11:02:41;;;;;;;44.65;32.67;;;;;;;22.23;58.22;101705.00;5104095;28;20044;-90
2022/10/20 11:05:17;;;;;;;46.05;35.38;;;;;;;22.23;58.28;101691.53;5117138;27;20051;-86
2022/10/20 11:08:05;;;;;;;46.85;35.55;;;;;;;22.21;58.34;101687.13;5097800;28;20056;-78
2022/10/20 11:10:35;;;;;;;47.03;33.67;;;;;;;22.21;58.40;101692.53;5115879;28;20050;-84
2022/10/20 11:13:28;;;;;;;37.50;29.80;;;;;;;22.23;58.53;101694.22;5097118;28;20043;-89
2022/10/20 11:16:35;;;;;;;42.95;31.70;;;;;;;22.23;58.49;101686.13;5116108;27;20479;-79
2022/10/20 11:19:38;;;;;;;36.40;28.75;;;;;;;22.23;58.38;101688.81;5131066;27;20067;-81
2022/10/20 11:22:49;;;;;;;37.13;28.15;;;;;;;22.23;58.49;101681.59;5136836;27;20478;-81
2022/10/20 11:25:37;;;;;;;35.25;26.73;;;;;;;22.25;58.51;101687.72;5032957;28;20061;-83
2022/10/20 11:28:31;;;;;;;33.70;26.23;;;;;;;22.24;58.59;101682.44;5033014;28;20052;-83
2022/10/20 11:30:59;;;;;;;34.17;27.88;;;;;;;22.25;58.69;101678.78;4999046;28;20549;-83
2022/10/20 11:33:43;;;;;;;35.58;27.05;;;;;;;22.25;58.56;101676.94;5033536;28;20057;-87
2022/10/20 11:36:20;;;;;;;34.97;26.60;;;;;;;22.26;58.57;101669.69;5000101;28;20057;-84